sensor_id;sensor_type;location;lat;lon;timestamp;P1;durP1;ratioP1;P2;durP2;ratioP2
1949;SDS011;975;48.760;9.152;2023-04-29T00:00:37;3.85;;;1.83;;
1949;SDS011;975;48.760;9.152;2023-04-29T00:03:04;2.63;;;1.70;;
1949;SDS011;975;48.760;9.152;2023-04-29T00:05:34;3.97;;;2.10;;
1949;SDS011;975;48.760;9.152;2023-04-29T00:08:07;4.00;;;1.80;;
1949;SDS011;975;48.760;9.152;2023-04-29T00:10:38;4.85;;;1.90;;
1949;SDS011;975;48.760;9.152;2023-04-29T00:13:06;3.00;;;1.75;;
1949;SDS011;975;48.760;9.152;2023-04-29T00:15:33;2.72;;;1.75;;
1949;SDS011;975;48.760;9.152;2023-04-29T00:18:01;6.05;;;2.20;;
1949;SDS011;975;48.760;9.152;2023-04-29T00:20:29;2.20;;;1.80;;
1949;SDS011;975;48.760;9.152;2023-04-29T00:22:58;2.85;;;2.13;;
1949;SDS011;975;48.760;9.152;2023-04-29T00:25:25;4.18;;;2.25;;
1949;SDS011;975;48.760;9.152;2023-04-29T00:28:01;6.03;;;1.70;;
1949;SDS011;975;48.760;9.152;2023-04-29T00:30:31;4.60;;;2.03;;
1949;SDS011;975;48.760;9.152;2023-04-29T00:33:12;3.50;;;1.75;;
1949;SDS011;975;48.760;9.152;2023-04-29T00:35:40;2.97;;;2.10;;
1949;SDS011;975;48.760;9.152;2023-04-29T00:38:13;3.40;;;2.00;;
1949;SDS011;975;48.760;9.152;2023-04-29T00:40:48;3.13;;;1.55;;
1949;SDS011;975;48.760;9.152;2023-04-29T00:43:28;3.25;;;1.90;;
1949;SDS011;975;48.760;9.152;2023-04-29T00:46:06;3.13;;;1.95;;
1949;SDS011;975;48.760;9.152;2023-04-29T00:48:57;4.53;;;1.88;;
1949;SDS011;975;48.760;9.152;2023-04-29T00:51:30;2.47;;;1.75;;
1949;SDS011;975;48.760;9.152;2023-04-29T00:57:17;3.85;;;2.35;;
1949;SDS011;975;48.760;9.152;2023-04-29T00:59:57;3.15;;;2.15;;
1949;SDS011;975;48.760;9.152;2023-04-29T01:02:47;6.57;;;2.05;;
1949;SDS011;975;48.760;9.152;2023-04-29T01:05:31;4.22;;;1.90;;
1949;SDS011;975;48.760;9.152;2023-04-29T01:08:27;5.93;;;2.20;;
1949;SDS011;975;48.760;9.152;2023-04-29T01:11:33;2.95;;;1.92;;
1949;SDS011;975;48.760;9.152;2023-04-29T01:14:57;4.38;;;2.10;;
1949;SDS011;975;48.760;9.152;2023-04-29T01:18:19;3.50;;;2.08;;
1949;SDS011;975;48.760;9.152;2023-04-29T01:21:04;3.10;;;1.73;;
1949;SDS011;975;48.760;9.152;2023-04-29T01:23:44;3.53;;;1.92;;
1949;SDS011;975;48.760;9.152;2023-04-29T01:26:25;2.30;;;1.83;;
1949;SDS011;975;48.760;9.152;2023-04-29T01:29:08;2.53;;;1.88;;
1949;SDS011;975;48.760;9.152;2023-04-29T01:31:53;2.63;;;1.70;;
1949;SDS011;975;48.760;9.152;2023-04-29T01:34:56;5.60;;;2.08;;
1949;SDS011;975;48.760;9.152;2023-04-29T01:37:35;2.88;;;1.88;;
1949;SDS011;975;48.760;9.152;2023-04-29T01:40:26;3.38;;;1.92;;
1949;SDS011;975;48.760;9.152;2023-04-29T01:43:04;4.57;;;1.83;;
1949;SDS011;975;48.760;9.152;2023-04-29T01:45:57;3.17;;;1.80;;
1949;SDS011;975;48.760;9.152;2023-04-29T01:48:51;4.50;;;2.00;;
1949;SDS011;975;48.760;9.152;2023-04-29T01:51:57;3.67;;;2.00;;
1949;SDS011;975;48.760;9.152;2023-04-29T01:54:30;3.38;;;1.75;;
1949;SDS011;975;48.760;9.152;2023-04-29T01:57:10;3.10;;;1.85;;
1949;SDS011;975;48.760;9.152;2023-04-29T01:59:46;4.03;;;1.92;;
1949;SDS011;975;48.760;9.152;2023-04-29T02:02:18;2.95;;;1.80;;
1949;SDS011;975;48.760;9.152;2023-04-29T02:05:00;4.40;;;2.35;;
1949;SDS011;975;48.760;9.152;2023-04-29T02:07:43;2.80;;;1.80;;
1949;SDS011;975;48.760;9.152;2023-04-29T02:10:22;3.72;;;1.75;;
1949;SDS011;975;48.760;9.152;2023-04-29T02:13:01;2.70;;;1.77;;
1949;SDS011;975;48.760;9.152;2023-04-29T02:15:32;2.38;;;1.60;;
1949;SDS011;975;48.760;9.152;2023-04-29T02:18:16;2.85;;;1.67;;
1949;SDS011;975;48.760;9.152;2023-04-29T02:20:47;2.40;;;1.73;;
1949;SDS011;975;48.760;9.152;2023-04-29T02:23:29;2.50;;;1.95;;
1949;SDS011;975;48.760;9.152;2023-04-29T02:25:59;1.95;;;1.65;;
1949;SDS011;975;48.760;9.152;2023-04-29T02:28:33;1.90;;;1.50;;
1949;SDS011;975;48.760;9.152;2023-04-29T02:31:13;2.22;;;1.70;;
1949;SDS011;975;48.760;9.152;2023-04-29T02:33:55;2.00;;;1.42;;
1949;SDS011;975;48.760;9.152;2023-04-29T02:36:29;3.72;;;1.65;;
1949;SDS011;975;48.760;9.152;2023-04-29T02:39:19;3.70;;;1.60;;
1949;SDS011;975;48.760;9.152;2023-04-29T02:41:54;2.65;;;2.00;;
1949;SDS011;975;48.760;9.152;2023-04-29T02:44:32;4.18;;;1.80;;
1949;SDS011;975;48.760;9.152;2023-04-29T02:47:09;3.28;;;1.70;;
1949;SDS011;975;48.760;9.152;2023-04-29T02:49:45;6.80;;;2.20;;
1949;SDS011;975;48.760;9.152;2023-04-29T02:52:24;5.22;;;2.10;;
1949;SDS011;975;48.760;9.152;2023-04-29T02:54:53;3.63;;;1.67;;
1949;SDS011;975;48.760;9.152;2023-04-29T02:57:34;3.15;;;2.00;;
1949;SDS011;975;48.760;9.152;2023-04-29T03:00:12;2.80;;;1.88;;
1949;SDS011;975;48.760;9.152;2023-04-29T03:02:55;3.25;;;2.00;;
1949;SDS011;975;48.760;9.152;2023-04-29T03:05:26;3.20;;;1.73;;
1949;SDS011;975;48.760;9.152;2023-04-29T03:08:05;2.90;;;2.00;;
1949;SDS011;975;48.760;9.152;2023-04-29T03:10:43;5.35;;;2.38;;
1949;SDS011;975;48.760;9.152;2023-04-29T03:13:24;4.47;;;1.73;;
1949;SDS011;975;48.760;9.152;2023-04-29T03:16:00;2.67;;;1.83;;
1949;SDS011;975;48.760;9.152;2023-04-29T03:18:31;3.08;;;1.98;;
1949;SDS011;975;48.760;9.152;2023-04-29T03:21:21;4.38;;;2.33;;
1949;SDS011;975;48.760;9.152;2023-04-29T03:23:58;5.40;;;2.10;;
1949;SDS011;975;48.760;9.152;2023-04-29T03:26:40;3.67;;;1.83;;
1949;SDS011;975;48.760;9.152;2023-04-29T03:29:21;2.47;;;1.60;;
1949;SDS011;975;48.760;9.152;2023-04-29T03:31:50;3.33;;;1.88;;
1949;SDS011;975;48.760;9.152;2023-04-29T03:34:17;2.97;;;1.55;;
1949;SDS011;975;48.760;9.152;2023-04-29T03:36:46;4.57;;;1.70;;
1949;SDS011;975;48.760;9.152;2023-04-29T03:39:13;2.25;;;1.70;;
1949;SDS011;975;48.760;9.152;2023-04-29T03:41:41;3.08;;;1.80;;
1949;SDS011;975;48.760;9.152;2023-04-29T03:44:09;3.38;;;1.75;;
1949;SDS011;975;48.760;9.152;2023-04-29T03:46:37;4.93;;;1.60;;
1949;SDS011;975;48.760;9.152;2023-04-29T03:49:13;2.97;;;1.67;;
1949;SDS011;975;48.760;9.152;2023-04-29T03:51:41;3.28;;;2.30;;
1949;SDS011;975;48.760;9.152;2023-04-29T03:54:13;6.38;;;1.90;;
1949;SDS011;975;48.760;9.152;2023-04-29T03:56:40;2.60;;;1.73;;
1949;SDS011;975;48.760;9.152;2023-04-29T03:59:08;2.40;;;1.83;;
1949;SDS011;975;48.760;9.152;2023-04-29T04:01:39;2.90;;;1.92;;
1949;SDS011;975;48.760;9.152;2023-04-29T04:04:08;2.90;;;1.70;;
1949;SDS011;975;48.760;9.152;2023-04-29T04:06:36;4.95;;;2.10;;
1949;SDS011;975;48.760;9.152;2023-04-29T04:09:09;5.88;;;2.00;;
1949;SDS011;975;48.760;9.152;2023-04-29T04:11:36;2.67;;;1.58;;
1949;SDS011;975;48.760;9.152;2023-04-29T04:14:06;3.60;;;1.95;;
1949;SDS011;975;48.760;9.152;2023-04-29T04:16:37;2.80;;;1.65;;
1949;SDS011;975;48.760;9.152;2023-04-29T04:19:18;5.60;;;1.80;;
1949;SDS011;975;48.760;9.152;2023-04-29T04:21:46;6.10;;;2.08;;
1949;SDS011;975;48.760;9.152;2023-04-29T04:24:14;3.15;;;2.03;;
1949;SDS011;975;48.760;9.152;2023-04-29T04:26:42;3.08;;;2.10;;
1949;SDS011;975;48.760;9.152;2023-04-29T04:29:09;4.38;;;2.30;;
1949;SDS011;975;48.760;9.152;2023-04-29T04:31:37;5.93;;;2.85;;
1949;SDS011;975;48.760;9.152;2023-04-29T04:34:04;3.28;;;2.10;;
1949;SDS011;975;48.760;9.152;2023-04-29T04:36:33;3.38;;;1.60;;
1949;SDS011;975;48.760;9.152;2023-04-29T04:39:01;3.97;;;2.00;;
1949;SDS011;975;48.760;9.152;2023-04-29T04:41:29;3.35;;;2.20;;
1949;SDS011;975;48.760;9.152;2023-04-29T04:44:00;4.38;;;2.47;;
1949;SDS011;975;48.760;9.152;2023-04-29T04:46:27;3.85;;;2.05;;
1949;SDS011;975;48.760;9.152;2023-04-29T04:48:55;2.70;;;1.88;;
1949;SDS011;975;48.760;9.152;2023-04-29T04:51:23;2.88;;;1.98;;
1949;SDS011;975;48.760;9.152;2023-04-29T04:53:59;2.80;;;1.98;;
1949;SDS011;975;48.760;9.152;2023-04-29T04:56:27;4.68;;;2.72;;
1949;SDS011;975;48.760;9.152;2023-04-29T04:58:54;7.85;;;3.10;;
1949;SDS011;975;48.760;9.152;2023-04-29T05:01:25;9.55;;;3.10;;
1949;SDS011;975;48.760;9.152;2023-04-29T05:03:52;5.93;;;2.60;;
1949;SDS011;975;48.760;9.152;2023-04-29T05:06:20;3.95;;;2.22;;
1949;SDS011;975;48.760;9.152;2023-04-29T05:11:20;3.17;;;1.75;;
1949;SDS011;975;48.760;9.152;2023-04-29T05:13:48;4.78;;;2.15;;
1949;SDS011;975;48.760;9.152;2023-04-29T05:16:15;4.28;;;2.15;;
1949;SDS011;975;48.760;9.152;2023-04-29T05:18:43;5.28;;;2.40;;
1949;SDS011;975;48.760;9.152;2023-04-29T05:21:14;3.72;;;1.98;;
1949;SDS011;975;48.760;9.152;2023-04-29T05:23:44;3.22;;;1.90;;
1949;SDS011;975;48.760;9.152;2023-04-29T05:26:12;3.05;;;1.80;;
1949;SDS011;975;48.760;9.152;2023-04-29T05:28:41;3.70;;;2.13;;
1949;SDS011;975;48.760;9.152;2023-04-29T05:31:09;3.72;;;2.72;;
1949;SDS011;975;48.760;9.152;2023-04-29T05:33:36;4.13;;;2.50;;
1949;SDS011;975;48.760;9.152;2023-04-29T05:36:04;5.65;;;3.03;;
1949;SDS011;975;48.760;9.152;2023-04-29T05:38:35;6.68;;;4.00;;
1949;SDS011;975;48.760;9.152;2023-04-29T05:41:02;3.97;;;2.40;;
1949;SDS011;975;48.760;9.152;2023-04-29T05:43:30;5.25;;;2.70;;
1949;SDS011;975;48.760;9.152;2023-04-29T05:45:59;4.57;;;2.72;;
1949;SDS011;975;48.760;9.152;2023-04-29T05:48:27;3.25;;;2.15;;
1949;SDS011;975;48.760;9.152;2023-04-29T05:50:55;2.90;;;2.20;;
1949;SDS011;975;48.760;9.152;2023-04-29T05:53:22;5.75;;;2.70;;
1949;SDS011;975;48.760;9.152;2023-04-29T05:55:53;4.90;;;2.67;;
1949;SDS011;975;48.760;9.152;2023-04-29T05:58:29;22.73;;;9.30;;
1949;SDS011;975;48.760;9.152;2023-04-29T06:00:57;4.90;;;2.88;;
1949;SDS011;975;48.760;9.152;2023-04-29T06:03:26;4.07;;;3.00;;
1949;SDS011;975;48.760;9.152;2023-04-29T06:05:54;4.75;;;2.58;;
1949;SDS011;975;48.760;9.152;2023-04-29T06:08:22;3.88;;;2.60;;
1949;SDS011;975;48.760;9.152;2023-04-29T06:10:50;3.15;;;2.28;;
1949;SDS011;975;48.760;9.152;2023-04-29T06:13:18;4.50;;;2.70;;
1949;SDS011;975;48.760;9.152;2023-04-29T06:15:45;5.22;;;2.78;;
1949;SDS011;975;48.760;9.152;2023-04-29T06:18:13;11.70;;;2.85;;
1949;SDS011;975;48.760;9.152;2023-04-29T06:20:42;4.35;;;2.88;;
1949;SDS011;975;48.760;9.152;2023-04-29T06:23:10;6.40;;;3.10;;
1949;SDS011;975;48.760;9.152;2023-04-29T06:25:38;3.55;;;2.67;;
1949;SDS011;975;48.760;9.152;2023-04-29T06:28:05;6.15;;;2.50;;
1949;SDS011;975;48.760;9.152;2023-04-29T06:30:33;5.60;;;3.15;;
1949;SDS011;975;48.760;9.152;2023-04-29T06:33:01;4.18;;;2.63;;
1949;SDS011;975;48.760;9.152;2023-04-29T06:35:31;5.45;;;2.78;;
1949;SDS011;975;48.760;9.152;2023-04-29T06:38:00;7.05;;;3.80;;
1949;SDS011;975;48.760;9.152;2023-04-29T06:40:28;6.38;;;3.70;;
1949;SDS011;975;48.760;9.152;2023-04-29T06:42:56;4.85;;;3.58;;
1949;SDS011;975;48.760;9.152;2023-04-29T06:45:24;5.20;;;3.80;;
1949;SDS011;975;48.760;9.152;2023-04-29T06:47:52;5.18;;;3.63;;
1949;SDS011;975;48.760;9.152;2023-04-29T06:50:23;4.70;;;3.45;;
1949;SDS011;975;48.760;9.152;2023-04-29T06:52:50;5.35;;;3.28;;
1949;SDS011;975;48.760;9.152;2023-04-29T06:55:20;5.97;;;2.92;;
1949;SDS011;975;48.760;9.152;2023-04-29T06:57:47;4.80;;;3.50;;
1949;SDS011;975;48.760;9.152;2023-04-29T07:00:15;4.05;;;2.70;;
1949;SDS011;975;48.760;9.152;2023-04-29T07:02:46;3.08;;;2.53;;
1949;SDS011;975;48.760;9.152;2023-04-29T07:05:16;4.15;;;2.53;;
1949;SDS011;975;48.760;9.152;2023-04-29T07:07:45;3.28;;;2.60;;
1949;SDS011;975;48.760;9.152;2023-04-29T07:10:13;3.60;;;2.72;;
1949;SDS011;975;48.760;9.152;2023-04-29T07:12:42;2.95;;;2.08;;
1949;SDS011;975;48.760;9.152;2023-04-29T07:15:10;2.65;;;2.22;;
1949;SDS011;975;48.760;9.152;2023-04-29T07:17:37;3.38;;;2.40;;
1949;SDS011;975;48.760;9.152;2023-04-29T07:20:05;3.17;;;2.10;;
1949;SDS011;975;48.760;9.152;2023-04-29T07:22:34;4.20;;;2.20;;
1949;SDS011;975;48.760;9.152;2023-04-29T07:25:10;2.53;;;2.15;;
1949;SDS011;975;48.760;9.152;2023-04-29T07:27:44;2.15;;;1.92;;
1949;SDS011;975;48.760;9.152;2023-04-29T07:30:12;2.33;;;2.00;;
1949;SDS011;975;48.760;9.152;2023-04-29T07:32:40;4.65;;;1.80;;
1949;SDS011;975;48.760;9.152;2023-04-29T07:35:08;2.30;;;1.70;;
1949;SDS011;975;48.760;9.152;2023-04-29T07:37:36;3.80;;;2.05;;
1949;SDS011;975;48.760;9.152;2023-04-29T07:40:05;1.98;;;1.70;;
1949;SDS011;975;48.760;9.152;2023-04-29T07:42:33;3.15;;;1.55;;
1949;SDS011;975;48.760;9.152;2023-04-29T07:45:03;3.03;;;1.35;;
1949;SDS011;975;48.760;9.152;2023-04-29T07:47:37;4.53;;;1.80;;
1949;SDS011;975;48.760;9.152;2023-04-29T07:50:10;2.70;;;1.50;;
1949;SDS011;975;48.760;9.152;2023-04-29T07:52:39;1.60;;;1.50;;
1949;SDS011;975;48.760;9.152;2023-04-29T07:55:18;4.18;;;1.58;;
1949;SDS011;975;48.760;9.152;2023-04-29T07:57:45;3.88;;;1.60;;
1949;SDS011;975;48.760;9.152;2023-04-29T08:00:15;2.33;;;1.80;;
1949;SDS011;975;48.760;9.152;2023-04-29T08:02:42;2.35;;;1.58;;
1949;SDS011;975;48.760;9.152;2023-04-29T08:05:10;1.98;;;1.65;;
1949;SDS011;975;48.760;9.152;2023-04-29T08:07:38;2.33;;;1.95;;
1949;SDS011;975;48.760;9.152;2023-04-29T08:10:06;4.25;;;1.58;;
1949;SDS011;975;48.760;9.152;2023-04-29T08:12:33;1.52;;;1.38;;
1949;SDS011;975;48.760;9.152;2023-04-29T08:15:01;3.45;;;2.00;;
1949;SDS011;975;48.760;9.152;2023-04-29T08:17:36;1.75;;;1.65;;
1949;SDS011;975;48.760;9.152;2023-04-29T08:20:04;1.50;;;1.40;;
1949;SDS011;975;48.760;9.152;2023-04-29T08:22:35;3.90;;;1.30;;
1949;SDS011;975;48.760;9.152;2023-04-29T08:25:03;1.98;;;1.35;;
1949;SDS011;975;48.760;9.152;2023-04-29T08:27:31;1.08;;;1.00;;
1949;SDS011;975;48.760;9.152;2023-04-29T08:29:58;1.88;;;1.20;;
1949;SDS011;975;48.760;9.152;2023-04-29T08:32:26;2.38;;;1.30;;
1949;SDS011;975;48.760;9.152;2023-04-29T08:34:55;2.45;;;1.17;;
1949;SDS011;975;48.760;9.152;2023-04-29T08:37:23;1.10;;;1.00;;
1949;SDS011;975;48.760;9.152;2023-04-29T08:39:50;1.30;;;1.20;;
1949;SDS011;975;48.760;9.152;2023-04-29T08:42:18;1.40;;;1.23;;
1949;SDS011;975;48.760;9.152;2023-04-29T08:44:47;1.77;;;1.27;;
1949;SDS011;975;48.760;9.152;2023-04-29T08:47:17;1.83;;;1.23;;
1949;SDS011;975;48.760;9.152;2023-04-29T08:49:54;2.03;;;1.55;;
1949;SDS011;975;48.760;9.152;2023-04-29T08:52:25;3.67;;;1.70;;
1949;SDS011;975;48.760;9.152;2023-04-29T08:54:53;4.30;;;1.75;;
1949;SDS011;975;48.760;9.152;2023-04-29T08:57:21;1.60;;;1.50;;
1949;SDS011;975;48.760;9.152;2023-04-29T08:59:49;2.72;;;2.00;;
1949;SDS011;975;48.760;9.152;2023-04-29T09:02:17;3.13;;;1.60;;
1949;SDS011;975;48.760;9.152;2023-04-29T09:04:46;1.85;;;1.65;;
1949;SDS011;975;48.760;9.152;2023-04-29T09:07:14;2.92;;;2.38;;
1949;SDS011;975;48.760;9.152;2023-04-29T09:09:43;1.75;;;1.63;;
1949;SDS011;975;48.760;9.152;2023-04-29T09:12:14;2.35;;;1.92;;
1949;SDS011;975;48.760;9.152;2023-04-29T09:14:43;3.40;;;2.00;;
1949;SDS011;975;48.760;9.152;2023-04-29T09:17:10;2.75;;;1.90;;
1949;SDS011;975;48.760;9.152;2023-04-29T09:19:41;5.05;;;3.10;;
1949;SDS011;975;48.760;9.152;2023-04-29T09:22:09;2.40;;;1.85;;
1949;SDS011;975;48.760;9.152;2023-04-29T09:24:37;3.45;;;2.67;;
1949;SDS011;975;48.760;9.152;2023-04-29T09:27:06;3.63;;;2.30;;
1949;SDS011;975;48.760;9.152;2023-04-29T09:29:34;4.70;;;2.75;;
1949;SDS011;975;48.760;9.152;2023-04-29T09:32:17;3.15;;;2.25;;
1949;SDS011;975;48.760;9.152;2023-04-29T09:34:45;4.60;;;2.10;;
1949;SDS011;975;48.760;9.152;2023-04-29T09:37:22;2.70;;;2.00;;
1949;SDS011;975;48.760;9.152;2023-04-29T09:42:19;3.63;;;1.95;;
1949;SDS011;975;48.760;9.152;2023-04-29T09:44:49;2.20;;;2.00;;
1949;SDS011;975;48.760;9.152;2023-04-29T09:47:18;3.45;;;2.05;;
1949;SDS011;975;48.760;9.152;2023-04-29T09:49:56;2.28;;;1.88;;
1949;SDS011;975;48.760;9.152;2023-04-29T09:52:38;2.47;;;1.80;;
1949;SDS011;975;48.760;9.152;2023-04-29T09:55:07;4.00;;;2.08;;
1949;SDS011;975;48.760;9.152;2023-04-29T09:57:40;4.00;;;2.38;;
1949;SDS011;975;48.760;9.152;2023-04-29T10:00:08;3.83;;;2.00;;
1949;SDS011;975;48.760;9.152;2023-04-29T10:02:36;2.45;;;2.00;;
1949;SDS011;975;48.760;9.152;2023-04-29T10:05:07;4.90;;;2.30;;
1949;SDS011;975;48.760;9.152;2023-04-29T10:07:39;4.00;;;2.00;;
1949;SDS011;975;48.760;9.152;2023-04-29T10:10:08;2.10;;;1.80;;
1949;SDS011;975;48.760;9.152;2023-04-29T10:12:39;2.25;;;1.88;;
1949;SDS011;975;48.760;9.152;2023-04-29T10:15:09;3.15;;;2.20;;
1949;SDS011;975;48.760;9.152;2023-04-29T10:17:40;2.72;;;2.03;;
1949;SDS011;975;48.760;9.152;2023-04-29T10:20:10;3.45;;;1.63;;
1949;SDS011;975;48.760;9.152;2023-04-29T10:22:43;1.88;;;1.23;;
1949;SDS011;975;48.760;9.152;2023-04-29T10:25:12;3.38;;;1.35;;
1949;SDS011;975;48.760;9.152;2023-04-29T10:27:43;2.80;;;1.65;;
1949;SDS011;975;48.760;9.152;2023-04-29T10:30:11;1.35;;;1.23;;
1949;SDS011;975;48.760;9.152;2023-04-29T10:32:39;3.28;;;1.30;;
1949;SDS011;975;48.760;9.152;2023-04-29T10:35:08;2.50;;;1.50;;
1949;SDS011;975;48.760;9.152;2023-04-29T10:37:39;3.10;;;1.48;;
1949;SDS011;975;48.760;9.152;2023-04-29T10:40:09;3.85;;;1.48;;
1949;SDS011;975;48.760;9.152;2023-04-29T10:42:44;2.10;;;1.42;;
1949;SDS011;975;48.760;9.152;2023-04-29T10:45:18;1.85;;;1.48;;
1949;SDS011;975;48.760;9.152;2023-04-29T10:50:58;3.63;;;1.77;;
1949;SDS011;975;48.760;9.152;2023-04-29T10:53:28;2.30;;;1.50;;
1949;SDS011;975;48.760;9.152;2023-04-29T10:55:56;5.32;;;1.55;;
1949;SDS011;975;48.760;9.152;2023-04-29T10:58:36;2.88;;;1.65;;
1949;SDS011;975;48.760;9.152;2023-04-29T11:01:04;2.65;;;1.88;;
1949;SDS011;975;48.760;9.152;2023-04-29T11:03:45;3.25;;;1.60;;
1949;SDS011;975;48.760;9.152;2023-04-29T11:06:21;3.45;;;1.98;;
1949;SDS011;975;48.760;9.152;2023-04-29T11:08:58;2.55;;;1.45;;
1949;SDS011;975;48.760;9.152;2023-04-29T11:11:38;2.95;;;1.52;;
1949;SDS011;975;48.760;9.152;2023-04-29T11:14:08;3.75;;;1.50;;
1949;SDS011;975;48.760;9.152;2023-04-29T11:16:36;1.90;;;1.75;;
1949;SDS011;975;48.760;9.152;2023-04-29T11:19:05;2.97;;;1.67;;
1949;SDS011;975;48.760;9.152;2023-04-29T11:21:33;2.42;;;1.42;;
1949;SDS011;975;48.760;9.152;2023-04-29T11:24:01;2.40;;;1.52;;
1949;SDS011;975;48.760;9.152;2023-04-29T11:26:30;1.90;;;1.60;;
1949;SDS011;975;48.760;9.152;2023-04-29T11:28:58;1.77;;;1.20;;
1949;SDS011;975;48.760;9.152;2023-04-29T11:31:30;3.58;;;1.60;;
1949;SDS011;975;48.760;9.152;2023-04-29T11:33:58;5.20;;;1.60;;
1949;SDS011;975;48.760;9.152;2023-04-29T11:36:25;4.03;;;1.50;;
1949;SDS011;975;48.760;9.152;2023-04-29T11:38:53;1.48;;;1.10;;
1949;SDS011;975;48.760;9.152;2023-04-29T11:41:20;1.92;;;1.15;;
1949;SDS011;975;48.760;9.152;2023-04-29T11:43:53;2.40;;;1.10;;
1949;SDS011;975;48.760;9.152;2023-04-29T11:46:22;4.15;;;1.60;;
1949;SDS011;975;48.760;9.152;2023-04-29T11:48:51;5.22;;;1.20;;
1949;SDS011;975;48.760;9.152;2023-04-29T11:51:18;2.20;;;1.35;;
1949;SDS011;975;48.760;9.152;2023-04-29T11:53:47;1.10;;;1.00;;
1949;SDS011;975;48.760;9.152;2023-04-29T11:56:14;2.97;;;1.10;;
1949;SDS011;975;48.760;9.152;2023-04-29T11:58:42;2.63;;;1.27;;
1949;SDS011;975;48.760;9.152;2023-04-29T12:01:10;2.00;;;1.38;;
1949;SDS011;975;48.760;9.152;2023-04-29T12:03:38;4.68;;;2.20;;
1949;SDS011;975;48.760;9.152;2023-04-29T12:06:07;6.47;;;2.20;;
1949;SDS011;975;48.760;9.152;2023-04-29T12:08:35;2.63;;;1.92;;
1949;SDS011;975;48.760;9.152;2023-04-29T12:11:03;2.70;;;2.13;;
1949;SDS011;975;48.760;9.152;2023-04-29T12:13:33;3.45;;;2.40;;
1949;SDS011;975;48.760;9.152;2023-04-29T12:16:04;4.25;;;3.10;;
1949;SDS011;975;48.760;9.152;2023-04-29T12:18:32;4.15;;;2.83;;
1949;SDS011;975;48.760;9.152;2023-04-29T12:21:02;4.22;;;2.88;;
1949;SDS011;975;48.760;9.152;2023-04-29T12:23:30;3.58;;;2.47;;
1949;SDS011;975;48.760;9.152;2023-04-29T12:25:58;3.40;;;2.38;;
1949;SDS011;975;48.760;9.152;2023-04-29T12:28:27;5.68;;;3.00;;
1949;SDS011;975;48.760;9.152;2023-04-29T12:30:56;4.35;;;2.92;;
1949;SDS011;975;48.760;9.152;2023-04-29T12:33:29;4.88;;;3.10;;
1949;SDS011;975;48.760;9.152;2023-04-29T12:35:57;6.25;;;3.83;;
1949;SDS011;975;48.760;9.152;2023-04-29T12:38:25;7.50;;;3.35;;
1949;SDS011;975;48.760;9.152;2023-04-29T12:40:58;6.28;;;3.85;;
1949;SDS011;975;48.760;9.152;2023-04-29T12:43:29;4.47;;;2.85;;
1949;SDS011;975;48.760;9.152;2023-04-29T12:45:59;6.85;;;3.83;;
1949;SDS011;975;48.760;9.152;2023-04-29T12:48:28;5.70;;;3.00;;
1949;SDS011;975;48.760;9.152;2023-04-29T12:50:56;5.72;;;3.47;;
1949;SDS011;975;48.760;9.152;2023-04-29T12:53:24;4.88;;;3.28;;
1949;SDS011;975;48.760;9.152;2023-04-29T12:55:53;6.07;;;3.50;;
1949;SDS011;975;48.760;9.152;2023-04-29T12:58:22;6.72;;;3.65;;
1949;SDS011;975;48.760;9.152;2023-04-29T13:00:50;5.53;;;3.45;;
1949;SDS011;975;48.760;9.152;2023-04-29T13:03:18;6.03;;;3.35;;
1949;SDS011;975;48.760;9.152;2023-04-29T13:05:46;4.43;;;2.90;;
1949;SDS011;975;48.760;9.152;2023-04-29T13:08:19;6.10;;;3.38;;
1949;SDS011;975;48.760;9.152;2023-04-29T13:10:51;6.28;;;3.25;;
1949;SDS011;975;48.760;9.152;2023-04-29T13:13:44;6.25;;;3.42;;
1949;SDS011;975;48.760;9.152;2023-04-29T13:16:17;5.80;;;3.38;;
1949;SDS011;975;48.760;9.152;2023-04-29T13:18:54;5.80;;;3.17;;
1949;SDS011;975;48.760;9.152;2023-04-29T13:21:22;7.18;;;3.78;;
1949;SDS011;975;48.760;9.152;2023-04-29T13:23:52;5.15;;;3.42;;
1949;SDS011;975;48.760;9.152;2023-04-29T13:26:22;5.43;;;3.35;;
1949;SDS011;975;48.760;9.152;2023-04-29T13:28:52;6.47;;;3.85;;
1949;SDS011;975;48.760;9.152;2023-04-29T13:31:20;7.10;;;4.18;;
1949;SDS011;975;48.760;9.152;2023-04-29T13:33:48;6.82;;;4.00;;
1949;SDS011;975;48.760;9.152;2023-04-29T13:36:16;7.68;;;4.28;;
1949;SDS011;975;48.760;9.152;2023-04-29T13:38:43;8.63;;;4.47;;
1949;SDS011;975;48.760;9.152;2023-04-29T13:41:11;8.10;;;4.38;;
1949;SDS011;975;48.760;9.152;2023-04-29T13:43:38;7.32;;;4.10;;
1949;SDS011;975;48.760;9.152;2023-04-29T13:46:07;7.75;;;4.25;;
1949;SDS011;975;48.760;9.152;2023-04-29T13:48:35;6.53;;;4.13;;
1949;SDS011;975;48.760;9.152;2023-04-29T13:51:06;9.75;;;4.75;;
1949;SDS011;975;48.760;9.152;2023-04-29T13:53:34;9.32;;;4.28;;
1949;SDS011;975;48.760;9.152;2023-04-29T13:56:01;7.28;;;4.47;;
1949;SDS011;975;48.760;9.152;2023-04-29T13:58:29;7.50;;;4.32;;
1949;SDS011;975;48.760;9.152;2023-04-29T14:00:57;9.90;;;5.30;;
1949;SDS011;975;48.760;9.152;2023-04-29T14:03:26;8.25;;;4.43;;
1949;SDS011;975;48.760;9.152;2023-04-29T14:05:53;9.50;;;5.10;;
1949;SDS011;975;48.760;9.152;2023-04-29T14:08:21;7.90;;;4.80;;
1949;SDS011;975;48.760;9.152;2023-04-29T14:10:49;9.75;;;5.43;;
1949;SDS011;975;48.760;9.152;2023-04-29T14:13:16;7.88;;;4.35;;
1949;SDS011;975;48.760;9.152;2023-04-29T14:15:44;5.72;;;3.95;;
1949;SDS011;975;48.760;9.152;2023-04-29T14:18:12;7.82;;;4.50;;
1949;SDS011;975;48.760;9.152;2023-04-29T14:20:41;7.05;;;4.25;;
1949;SDS011;975;48.760;9.152;2023-04-29T14:23:08;9.25;;;4.70;;
1949;SDS011;975;48.760;9.152;2023-04-29T14:25:36;6.93;;;4.50;;
1949;SDS011;975;48.760;9.152;2023-04-29T14:28:08;7.57;;;4.28;;
1949;SDS011;975;48.760;9.152;2023-04-29T14:30:41;11.88;;;5.25;;
1949;SDS011;975;48.760;9.152;2023-04-29T14:38:44;11.90;;;5.57;;
1949;SDS011;975;48.760;9.152;2023-04-29T14:41:12;9.18;;;5.25;;
1949;SDS011;975;48.760;9.152;2023-04-29T14:43:40;7.60;;;4.53;;
1949;SDS011;975;48.760;9.152;2023-04-29T14:46:08;10.40;;;4.47;;
1949;SDS011;975;48.760;9.152;2023-04-29T14:48:35;9.52;;;5.20;;
1949;SDS011;975;48.760;9.152;2023-04-29T14:51:03;7.80;;;5.20;;
1949;SDS011;975;48.760;9.152;2023-04-29T14:53:38;11.30;;;5.60;;
1949;SDS011;975;48.760;9.152;2023-04-29T14:56:06;7.47;;;4.75;;
1949;SDS011;975;48.760;9.152;2023-04-29T14:58:34;10.65;;;4.78;;
1949;SDS011;975;48.760;9.152;2023-04-29T15:01:02;7.47;;;4.43;;
1949;SDS011;975;48.760;9.152;2023-04-29T15:03:30;11.85;;;5.88;;
1949;SDS011;975;48.760;9.152;2023-04-29T15:05:57;13.30;;;5.57;;
1949;SDS011;975;48.760;9.152;2023-04-29T15:08:31;9.73;;;4.95;;
1949;SDS011;975;48.760;9.152;2023-04-29T15:11:00;9.88;;;5.22;;
1949;SDS011;975;48.760;9.152;2023-04-29T15:13:28;8.45;;;4.80;;
1949;SDS011;975;48.760;9.152;2023-04-29T15:15:56;9.45;;;5.38;;
1949;SDS011;975;48.760;9.152;2023-04-29T15:18:23;10.30;;;5.20;;
1949;SDS011;975;48.760;9.152;2023-04-29T15:20:52;10.27;;;5.55;;
1949;SDS011;975;48.760;9.152;2023-04-29T15:23:20;7.93;;;4.43;;
1949;SDS011;975;48.760;9.152;2023-04-29T15:25:48;7.65;;;4.88;;
1949;SDS011;975;48.760;9.152;2023-04-29T15:28:16;9.05;;;4.57;;
1949;SDS011;975;48.760;9.152;2023-04-29T15:30:44;7.57;;;4.45;;
1949;SDS011;975;48.760;9.152;2023-04-29T15:33:12;8.00;;;4.50;;
1949;SDS011;975;48.760;9.152;2023-04-29T15:35:40;7.72;;;4.32;;
1949;SDS011;975;48.760;9.152;2023-04-29T15:38:08;8.60;;;5.15;;
1949;SDS011;975;48.760;9.152;2023-04-29T15:40:36;10.18;;;5.15;;
1949;SDS011;975;48.760;9.152;2023-04-29T15:43:04;9.32;;;4.65;;
1949;SDS011;975;48.760;9.152;2023-04-29T15:45:33;13.10;;;4.88;;
1949;SDS011;975;48.760;9.152;2023-04-29T15:48:01;6.35;;;4.00;;
1949;SDS011;975;48.760;9.152;2023-04-29T15:50:29;9.20;;;5.10;;
1949;SDS011;975;48.760;9.152;2023-04-29T15:52:57;7.35;;;4.30;;
1949;SDS011;975;48.760;9.152;2023-04-29T15:55:25;8.90;;;5.07;;
1949;SDS011;975;48.760;9.152;2023-04-29T15:57:53;7.95;;;4.50;;
1949;SDS011;975;48.760;9.152;2023-04-29T16:00:20;9.20;;;4.63;;
1949;SDS011;975;48.760;9.152;2023-04-29T16:02:49;11.18;;;4.55;;
1949;SDS011;975;48.760;9.152;2023-04-29T16:05:17;8.23;;;4.25;;
1949;SDS011;975;48.760;9.152;2023-04-29T16:07:44;10.98;;;4.60;;
1949;SDS011;975;48.760;9.152;2023-04-29T16:10:14;9.00;;;4.40;;
1949;SDS011;975;48.760;9.152;2023-04-29T16:12:42;9.60;;;4.47;;